Jennings Lodge, Oregon
Current Conditions -  °F | °C
As of 1:53 PM on Sunday 21 Dec 2014 (Local Time) from KPDX Reporting Station
Overcast Overcast  
Wind Chill: 55°   Ceiling: 9000
Heat Index: 55°   Visibility: 10mi
Dew Point: 51°   Wind: 8mph
Humidity: 86%   Direction: 210°SSW
Pressure: 30.08"   Gusts: NA
Location:  45.4079°N, 122.613°W
Report Text: KPDX 212153Z 21007KT 10SM FEW020 FEW040 OVC090 13/11 A3008 RMK AO2 RAB2059E08 SLP185 P0000 T01280106
Loading
Personal Weather Stations






























Interactive Weather Map New forecast layout! Learn more

10-Day Weather Forecast

Advertisements
Track Severe Weather on mobile